Atqasuk, Alaska
Current Conditions -  °F | °C
As of 8:53 AM on Thursday 23 Oct 2014 (Local Time) from PAWI Reporting Station
Light Snow Light Snow  
Wind Chill:   Ceiling: 4800
Heat Index: 23°   Visibility: 1mi
Dew Point: 20°   Wind: 25mph
Humidity: 88%   Direction: 60°ENE
Pressure: 29.9"   Gusts: NA
Location:  70.47°N, 157.4°W
Report Text: PAWI 231653Z AUTO 06022KT 1SM -SN BR OVC048 M05/M07 A2990 RMK PK WND 06028/1644 SLP125 P0000 T10501067 TSNO VIA AUTODIAL
Loading
Personal Weather Stations






























Interactive Weather Map
Tropical Storm Tracking
New forecast layout! Learn more

10-Day Weather Forecast

Advertisements
Track Severe Weather on mobile